sensor_id;sensor_type;location;lat;lon;timestamp;pressure;altitude;pressure_sealevel;temperature;humidity
70254;BME280;57649;42.968;1.608;2023-07-13T00:00:27;97583.47;;;20.04;100.00
70254;BME280;57649;42.968;1.608;2023-07-13T00:02:52;97584.16;;;19.99;100.00
70254;BME280;57649;42.968;1.608;2023-07-13T00:05:22;97584.31;;;20.04;100.00
70254;BME280;57649;42.968;1.608;2023-07-13T00:07:48;97583.31;;;19.98;100.00
70254;BME280;57649;42.968;1.608;2023-07-13T00:10:14;97578.97;;;19.91;100.00
70254;BME280;57649;42.968;1.608;2023-07-13T00:12:39;97574.78;;;19.95;100.00
70254;BME280;57649;42.968;1.608;2023-07-13T00:15:09;97578.50;;;20.00;100.00
70254;BME280;57649;42.968;1.608;2023-07-13T00:17:37;97583.16;;;19.93;100.00
70254;BME280;57649;42.968;1.608;2023-07-13T00:20:05;97577.63;;;20.00;100.00
70254;BME280;57649;42.968;1.608;2023-07-13T00:22:31;97584.97;;;19.99;100.00
70254;BME280;57649;42.968;1.608;2023-07-13T00:24:56;97576.22;;;19.97;100.00
70254;BME280;57649;42.968;1.608;2023-07-13T00:27:22;97586.25;;;19.97;100.00
70254;BME280;57649;42.968;1.608;2023-07-13T00:29:48;97576.91;;;19.93;100.00
70254;BME280;57649;42.968;1.608;2023-07-13T00:32:13;97578.09;;;19.97;100.00
70254;BME280;57649;42.968;1.608;2023-07-13T00:34:39;97573.94;;;19.94;100.00
70254;BME280;57649;42.968;1.608;2023-07-13T00:37:06;97573.88;;;20.01;100.00
70254;BME280;57649;42.968;1.608;2023-07-13T00:39:32;97571.81;;;19.96;100.00
70254;BME280;57649;42.968;1.608;2023-07-13T00:41:58;97575.59;;;19.95;100.00
70254;BME280;57649;42.968;1.608;2023-07-13T00:44:23;97573.09;;;19.94;100.00
70254;BME280;57649;42.968;1.608;2023-07-13T00:46:50;97578.09;;;19.97;100.00
70254;BME280;57649;42.968;1.608;2023-07-13T00:49:19;97572.28;;;19.93;100.00
70254;BME280;57649;42.968;1.608;2023-07-13T00:51:53;97572.34;;;19.87;100.00
70254;BME280;57649;42.968;1.608;2023-07-13T00:54:27;97568.75;;;19.93;100.00
70254;BME280;57649;42.968;1.608;2023-07-13T00:56:55;97570.84;;;19.91;100.00
70254;BME280;57649;42.968;1.608;2023-07-13T00:59:22;97571.31;;;19.88;100.00
70254;BME280;57649;42.968;1.608;2023-07-13T01:01:48;97565.69;;;19.83;100.00
70254;BME280;57649;42.968;1.608;2023-07-13T01:04:14;97570.34;;;19.75;100.00
70254;BME280;57649;42.968;1.608;2023-07-13T01:06:40;97570.00;;;19.65;100.00
70254;BME280;57649;42.968;1.608;2023-07-13T01:09:09;97576.66;;;19.69;100.00
70254;BME280;57649;42.968;1.608;2023-07-13T01:11:36;97570.16;;;19.70;100.00
70254;BME280;57649;42.968;1.608;2023-07-13T01:14:02;97570.75;;;19.72;100.00
70254;BME280;57649;42.968;1.608;2023-07-13T01:16:31;97574.63;;;19.58;100.00
70254;BME280;57649;42.968;1.608;2023-07-13T01:18:58;97565.81;;;19.37;100.00
70254;BME280;57649;42.968;1.608;2023-07-13T01:21:24;97563.28;;;19.42;100.00
70254;BME280;57649;42.968;1.608;2023-07-13T01:23:50;97564.97;;;19.43;100.00
70254;BME280;57649;42.968;1.608;2023-07-13T01:26:15;97569.72;;;19.48;100.00
70254;BME280;57649;42.968;1.608;2023-07-13T01:28:41;97583.03;;;19.56;100.00
70254;BME280;57649;42.968;1.608;2023-07-13T01:31:06;97578.59;;;19.62;100.00
70254;BME280;57649;42.968;1.608;2023-07-13T01:33:33;97573.34;;;19.67;100.00
70254;BME280;57649;42.968;1.608;2023-07-13T01:36:00;97579.81;;;19.66;100.00
70254;BME280;57649;42.968;1.608;2023-07-13T01:38:27;97566.63;;;19.70;100.00
70254;BME280;57649;42.968;1.608;2023-07-13T01:40:53;97573.84;;;19.83;100.00
70254;BME280;57649;42.968;1.608;2023-07-13T01:43:19;97568.59;;;19.88;100.00
70254;BME280;57649;42.968;1.608;2023-07-13T01:45:44;97569.47;;;19.81;100.00
70254;BME280;57649;42.968;1.608;2023-07-13T01:48:10;97573.41;;;19.86;100.00
70254;BME280;57649;42.968;1.608;2023-07-13T01:50:36;97560.09;;;19.77;100.00
70254;BME280;57649;42.968;1.608;2023-07-13T01:53:02;97564.94;;;19.75;100.00
70254;BME280;57649;42.968;1.608;2023-07-13T01:55:28;97568.69;;;19.74;100.00
70254;BME280;57649;42.968;1.608;2023-07-13T01:57:54;97576.41;;;19.77;100.00
70254;BME280;57649;42.968;1.608;2023-07-13T02:00:19;97565.34;;;19.72;100.00
70254;BME280;57649;42.968;1.608;2023-07-13T02:02:45;97574.06;;;19.81;100.00
70254;BME280;57649;42.968;1.608;2023-07-13T02:05:11;97569.94;;;19.78;100.00
70254;BME280;57649;42.968;1.608;2023-07-13T02:07:38;97575.50;;;19.84;100.00
70254;BME280;57649;42.968;1.608;2023-07-13T02:10:04;97575.50;;;19.84;100.00
70254;BME280;57649;42.968;1.608;2023-07-13T02:12:30;97583.88;;;19.82;100.00
70254;BME280;57649;42.968;1.608;2023-07-13T02:14:55;97569.72;;;19.80;100.00
70254;BME280;57649;42.968;1.608;2023-07-13T02:17:21;97582.09;;;19.69;100.00
70254;BME280;57649;42.968;1.608;2023-07-13T02:19:46;97567.03;;;19.73;100.00
70254;BME280;57649;42.968;1.608;2023-07-13T02:22:12;97582.44;;;19.79;100.00
70254;BME280;57649;42.968;1.608;2023-07-13T02:24:37;97583.13;;;19.75;100.00
70254;BME280;57649;42.968;1.608;2023-07-13T02:27:03;97577.31;;;19.65;100.00
70254;BME280;57649;42.968;1.608;2023-07-13T02:29:29;97584.03;;;19.62;100.00
70254;BME280;57649;42.968;1.608;2023-07-13T02:31:54;97579.22;;;19.64;100.00
70254;BME280;57649;42.968;1.608;2023-07-13T02:34:20;97572.94;;;19.64;100.00
70254;BME280;57649;42.968;1.608;2023-07-13T02:36:45;97580.84;;;19.65;100.00
70254;BME280;57649;42.968;1.608;2023-07-13T02:39:12;97580.03;;;19.65;100.00
70254;BME280;57649;42.968;1.608;2023-07-13T02:41:37;97569.13;;;19.71;100.00
70254;BME280;57649;42.968;1.608;2023-07-13T02:44:03;97583.44;;;19.60;100.00
70254;BME280;57649;42.968;1.608;2023-07-13T02:46:33;97569.72;;;19.48;100.00
70254;BME280;57649;42.968;1.608;2023-07-13T02:48:59;97568.72;;;19.42;100.00
70254;BME280;57649;42.968;1.608;2023-07-13T02:51:25;97574.53;;;19.46;100.00
70254;BME280;57649;42.968;1.608;2023-07-13T02:53:50;97570.53;;;19.49;100.00
70254;BME280;57649;42.968;1.608;2023-07-13T02:56:16;97566.44;;;19.39;100.00
70254;BME280;57649;42.968;1.608;2023-07-13T02:58:41;97568.16;;;19.34;100.00
70254;BME280;57649;42.968;1.608;2023-07-13T03:01:11;97564.78;;;19.38;100.00
70254;BME280;57649;42.968;1.608;2023-07-13T03:03:37;97568.72;;;19.42;100.00
70254;BME280;57649;42.968;1.608;2023-07-13T03:06:04;97571.59;;;19.48;100.00
70254;BME280;57649;42.968;1.608;2023-07-13T03:08:31;97568.72;;;19.42;100.00
70254;BME280;57649;42.968;1.608;2023-07-13T03:11:05;97573.19;;;19.30;100.00
70254;BME280;57649;42.968;1.608;2023-07-13T03:13:31;97572.56;;;19.28;100.00
70254;BME280;57649;42.968;1.608;2023-07-13T03:15:56;97571.88;;;19.39;100.00
70254;BME280;57649;42.968;1.608;2023-07-13T03:18:22;97564.81;;;19.32;100.00
70254;BME280;57649;42.968;1.608;2023-07-13T03:20:51;97569.81;;;19.35;100.00
70254;BME280;57649;42.968;1.608;2023-07-13T03:23:17;97570.00;;;19.40;100.00
70254;BME280;57649;42.968;1.608;2023-07-13T03:25:42;97571.97;;;19.26;100.00
70254;BME280;57649;42.968;1.608;2023-07-13T03:28:07;97574.47;;;19.28;100.00
70254;BME280;57649;42.968;1.608;2023-07-13T03:30:33;97576.50;;;19.32;100.00
70254;BME280;57649;42.968;1.608;2023-07-13T03:32:58;97583.19;;;19.36;100.00
70254;BME280;57649;42.968;1.608;2023-07-13T03:35:24;97583.63;;;19.33;100.00
70254;BME280;57649;42.968;1.608;2023-07-13T03:37:49;97584.84;;;19.37;100.00
70254;BME280;57649;42.968;1.608;2023-07-13T03:40:15;97582.34;;;19.36;100.00
70254;BME280;57649;42.968;1.608;2023-07-13T03:42:40;97579.38;;;19.44;100.00
70254;BME280;57649;42.968;1.608;2023-07-13T03:45:06;97586.91;;;19.42;100.00
70254;BME280;57649;42.968;1.608;2023-07-13T03:47:31;97587.50;;;19.44;100.00
70254;BME280;57649;42.968;1.608;2023-07-13T03:49:57;97596.16;;;19.34;100.00
70254;BME280;57649;42.968;1.608;2023-07-13T03:52:22;97588.63;;;19.36;100.00
70254;BME280;57649;42.968;1.608;2023-07-13T03:54:48;97596.09;;;19.41;100.00
70254;BME280;57649;42.968;1.608;2023-07-13T03:57:13;97591.31;;;19.36;100.00
70254;BME280;57649;42.968;1.608;2023-07-13T03:59:39;97605.34;;;19.33;100.00
70254;BME280;57649;42.968;1.608;2023-07-13T04:02:04;97603.66;;;19.32;100.00
70254;BME280;57649;42.968;1.608;2023-07-13T04:04:30;97615.91;;;19.41;100.00
70254;BME280;57649;42.968;1.608;2023-07-13T04:06:57;97600.31;;;19.30;100.00
70254;BME280;57649;42.968;1.608;2023-07-13T04:09:24;97609.34;;;19.24;100.00
70254;BME280;57649;42.968;1.608;2023-07-13T04:11:49;97614.56;;;19.26;100.00
70254;BME280;57649;42.968;1.608;2023-07-13T04:14:15;97618.81;;;19.15;100.00
70254;BME280;57649;42.968;1.608;2023-07-13T04:16:41;97622.25;;;18.97;100.00
70254;BME280;57649;42.968;1.608;2023-07-13T04:19:07;97619.13;;;18.93;100.00
70254;BME280;57649;42.968;1.608;2023-07-13T04:21:32;97623.56;;;18.81;100.00
70254;BME280;57649;42.968;1.608;2023-07-13T04:23:58;97621.47;;;18.76;100.00
70254;BME280;57649;42.968;1.608;2023-07-13T04:26:23;97634.66;;;18.66;100.00
70254;BME280;57649;42.968;1.608;2023-07-13T04:28:50;97628.81;;;18.62;100.00
70254;BME280;57649;42.968;1.608;2023-07-13T04:31:16;97635.53;;;18.53;100.00
70254;BME280;57649;42.968;1.608;2023-07-13T04:33:41;97645.38;;;18.41;100.00
70254;BME280;57649;42.968;1.608;2023-07-13T04:36:08;97639.13;;;18.34;100.00
70254;BME280;57649;42.968;1.608;2023-07-13T04:38:35;97644.56;;;18.34;100.00
70254;BME280;57649;42.968;1.608;2023-07-13T04:41:02;97646.00;;;18.30;100.00
70254;BME280;57649;42.968;1.608;2023-07-13T04:43:29;97648.31;;;18.33;100.00
70254;BME280;57649;42.968;1.608;2023-07-13T04:45:55;97645.78;;;18.31;100.00
70254;BME280;57649;42.968;1.608;2023-07-13T04:48:21;97653.31;;;18.36;100.00
70254;BME280;57649;42.968;1.608;2023-07-13T04:50:48;97655.59;;;18.32;100.00
70254;BME280;57649;42.968;1.608;2023-07-13T04:53:18;97655.19;;;18.28;100.00
70254;BME280;57649;42.968;1.608;2023-07-13T04:55:44;97653.72;;;18.26;100.00
70254;BME280;57649;42.968;1.608;2023-07-13T04:58:09;97657.50;;;18.25;100.00
70254;BME280;57649;42.968;1.608;2023-07-13T05:00:35;97652.91;;;18.32;100.00
70254;BME280;57649;42.968;1.608;2023-07-13T05:03:00;97658.94;;;18.41;100.00
70254;BME280;57649;42.968;1.608;2023-07-13T05:05:26;97663.28;;;18.42;100.00
70254;BME280;57649;42.968;1.608;2023-07-13T05:07:53;97674.94;;;18.42;100.00
70254;BME280;57649;42.968;1.608;2023-07-13T05:10:19;97676.88;;;18.28;100.00
70254;BME280;57649;42.968;1.608;2023-07-13T05:12:44;97670.22;;;18.18;100.00
70254;BME280;57649;42.968;1.608;2023-07-13T05:15:10;97679.38;;;18.30;100.00
70254;BME280;57649;42.968;1.608;2023-07-13T05:17:36;97678.56;;;18.23;100.00
70254;BME280;57649;42.968;1.608;2023-07-13T05:20:01;97683.56;;;18.06;100.00
70254;BME280;57649;42.968;1.608;2023-07-13T05:22:26;97681.69;;;18.00;100.00
70254;BME280;57649;42.968;1.608;2023-07-13T05:24:52;97691.69;;;17.99;100.00
70254;BME280;57649;42.968;1.608;2023-07-13T05:27:17;97698.75;;;18.00;100.00
70254;BME280;57649;42.968;1.608;2023-07-13T05:29:43;97688.91;;;17.73;100.00
70254;BME280;57649;42.968;1.608;2023-07-13T05:32:09;97695.78;;;17.55;100.00
70254;BME280;57649;42.968;1.608;2023-07-13T05:34:34;97701.97;;;17.36;100.00
70254;BME280;57649;42.968;1.608;2023-07-13T05:37:00;97714.91;;;17.40;100.00
70254;BME280;57649;42.968;1.608;2023-07-13T05:39:25;97704.25;;;17.32;100.00
70254;BME280;57649;42.968;1.608;2023-07-13T05:41:52;97704.09;;;17.40;100.00
70254;BME280;57649;42.968;1.608;2023-07-13T05:44:18;97709.91;;;17.37;100.00
70254;BME280;57649;42.968;1.608;2023-07-13T05:46:44;97711.34;;;17.33;100.00
70254;BME280;57649;42.968;1.608;2023-07-13T05:49:09;97705.31;;;17.38;100.00
70254;BME280;57649;42.968;1.608;2023-07-13T05:51:35;97719.94;;;17.63;100.00
70254;BME280;57649;42.968;1.608;2023-07-13T05:54:00;97719.97;;;17.83;100.00
70254;BME280;57649;42.968;1.608;2023-07-13T05:56:26;97719.13;;;17.76;100.00
70254;BME280;57649;42.968;1.608;2023-07-13T05:58:51;97724.31;;;17.71;100.00
70254;BME280;57649;42.968;1.608;2023-07-13T06:01:17;97731.19;;;17.67;100.00
70254;BME280;57649;42.968;1.608;2023-07-13T06:03:43;97733.69;;;17.62;100.00
70254;BME280;57649;42.968;1.608;2023-07-13T06:06:10;97745.56;;;17.61;100.00
70254;BME280;57649;42.968;1.608;2023-07-13T06:08:35;97737.44;;;17.67;100.00
70254;BME280;57649;42.968;1.608;2023-07-13T06:11:16;97746.16;;;17.49;100.00
70254;BME280;57649;42.968;1.608;2023-07-13T06:13:42;97743.84;;;17.46;100.00
70254;BME280;57649;42.968;1.608;2023-07-13T06:16:08;97745.75;;;17.46;100.00
70254;BME280;57649;42.968;1.608;2023-07-13T06:18:34;97749.63;;;17.30;100.00
70254;BME280;57649;42.968;1.608;2023-07-13T06:21:05;97751.09;;;17.32;100.00
70254;BME280;57649;42.968;1.608;2023-07-13T06:23:30;97742.56;;;17.36;100.00
70254;BME280;57649;42.968;1.608;2023-07-13T06:25:55;97745.06;;;17.37;100.00
70254;BME280;57649;42.968;1.608;2023-07-13T06:28:21;97748.25;;;17.47;100.00
70254;BME280;57649;42.968;1.608;2023-07-13T06:30:47;97744.44;;;17.35;100.00
70254;BME280;57649;42.968;1.608;2023-07-13T06:33:12;97755.91;;;17.37;100.00
70254;BME280;57649;42.968;1.608;2023-07-13T06:35:37;97749.47;;;17.38;100.00
70254;BME280;57649;42.968;1.608;2023-07-13T06:38:03;97753.16;;;17.24;100.00
70254;BME280;57649;42.968;1.608;2023-07-13T06:40:29;97757.69;;;17.17;100.00
70254;BME280;57649;42.968;1.608;2023-07-13T06:42:55;97761.53;;;16.94;100.00
70254;BME280;57649;42.968;1.608;2023-07-13T06:45:21;97764.66;;;16.91;100.00
70254;BME280;57649;42.968;1.608;2023-07-13T06:47:46;97762.56;;;16.93;100.00
70254;BME280;57649;42.968;1.608;2023-07-13T06:50:12;97772.19;;;17.02;100.00
70254;BME280;57649;42.968;1.608;2023-07-13T06:52:37;97771.56;;;17.00;100.00
70254;BME280;57649;42.968;1.608;2023-07-13T06:55:03;97776.94;;;16.93;100.00
70254;BME280;57649;42.968;1.608;2023-07-13T06:57:28;97774.03;;;16.95;100.00
70254;BME280;57649;42.968;1.608;2023-07-13T06:59:53;97765.91;;;16.95;100.00
70254;BME280;57649;42.968;1.608;2023-07-13T07:02:19;97768.38;;;16.90;100.00
70254;BME280;57649;42.968;1.608;2023-07-13T07:04:44;97778.81;;;16.93;100.00
70254;BME280;57649;42.968;1.608;2023-07-13T07:07:10;97774.28;;;17.07;100.00
70254;BME280;57649;42.968;1.608;2023-07-13T07:09:35;97776.16;;;17.06;100.00
70254;BME280;57649;42.968;1.608;2023-07-13T07:12:02;97782.19;;;17.08;100.00
70254;BME280;57649;42.968;1.608;2023-07-13T07:14:28;97783.66;;;17.04;100.00
70254;BME280;57649;42.968;1.608;2023-07-13T07:16:53;97792.25;;;17.15;100.00
70254;BME280;57649;42.968;1.608;2023-07-13T07:19:19;97797.84;;;17.20;100.00
70254;BME280;57649;42.968;1.608;2023-07-13T07:21:44;97794.31;;;17.19;100.00
70254;BME280;57649;42.968;1.608;2023-07-13T07:24:09;97792.00;;;17.16;100.00
70254;BME280;57649;42.968;1.608;2023-07-13T07:26:35;97796.16;;;17.12;100.00
70254;BME280;57649;42.968;1.608;2023-07-13T07:29:00;97803.50;;;17.18;100.00
70254;BME280;57649;42.968;1.608;2023-07-13T07:31:26;97802.25;;;17.21;100.00
70254;BME280;57649;42.968;1.608;2023-07-13T07:33:51;97800.59;;;17.26;100.00
70254;BME280;57649;42.968;1.608;2023-07-13T07:36:16;97801.28;;;17.35;100.00
70254;BME280;57649;42.968;1.608;2023-07-13T07:38:43;97802.72;;;17.31;100.00
70254;BME280;57649;42.968;1.608;2023-07-13T07:41:08;97803.50;;;17.25;100.00
70254;BME280;57649;42.968;1.608;2023-07-13T07:43:34;97802.47;;;17.26;100.00
70254;BME280;57649;42.968;1.608;2023-07-13T07:45:59;97808.09;;;17.24;100.00
70254;BME280;57649;42.968;1.608;2023-07-13T07:48:25;97806.44;;;17.30;100.00
70254;BME280;57649;42.968;1.608;2023-07-13T07:50:50;97804.56;;;17.30;100.00
70254;BME280;57649;42.968;1.608;2023-07-13T07:53:15;97804.00;;;17.42;100.00
70254;BME280;57649;42.968;1.608;2023-07-13T07:55:41;97814.63;;;17.43;100.00
70254;BME280;57649;42.968;1.608;2023-07-13T07:58:06;97808.19;;;17.44;100.00
70254;BME280;57649;42.968;1.608;2023-07-13T08:00:32;97809.00;;;17.38;100.00
70254;BME280;57649;42.968;1.608;2023-07-13T08:02:58;97807.97;;;17.46;100.00
70254;BME280;57649;42.968;1.608;2023-07-13T08:05:24;97810.31;;;17.56;100.00
70254;BME280;57649;42.968;1.608;2023-07-13T08:07:50;97823.16;;;17.40;100.00
70254;BME280;57649;42.968;1.608;2023-07-13T08:10:15;97819.25;;;17.49;100.00
70254;BME280;57649;42.968;1.608;2023-07-13T08:12:41;97821.66;;;17.31;100.00
70254;BME280;57649;42.968;1.608;2023-07-13T08:15:12;97823.56;;;17.37;100.00
70254;BME280;57649;42.968;1.608;2023-07-13T08:17:38;97813.66;;;17.16;100.00
70254;BME280;57649;42.968;1.608;2023-07-13T08:20:03;97831.31;;;17.12;100.00
70254;BME280;57649;42.968;1.608;2023-07-13T08:22:29;97822.63;;;17.17;100.00
70254;BME280;57649;42.968;1.608;2023-07-13T08:24:54;97828.91;;;16.89;100.00
70254;BME280;57649;42.968;1.608;2023-07-13T08:27:24;97822.94;;;17.00;100.00
70254;BME280;57649;42.968;1.608;2023-07-13T08:29:49;97826.69;;;16.99;100.00
70254;BME280;57649;42.968;1.608;2023-07-13T08:32:15;97823.59;;;17.02;100.00
70254;BME280;57649;42.968;1.608;2023-07-13T08:34:40;97822.78;;;17.08;100.00
70254;BME280;57649;42.968;1.608;2023-07-13T08:37:06;97824.66;;;17.08;100.00
70254;BME280;57649;42.968;1.608;2023-07-13T08:39:33;97829.06;;;17.16;100.00
70254;BME280;57649;42.968;1.608;2023-07-13T08:42:41;97828.00;;;17.10;100.00
70254;BME280;57649;42.968;1.608;2023-07-13T08:45:21;97826.22;;;16.96;100.00
70254;BME280;57649;42.968;1.608;2023-07-13T08:48:11;97828.91;;;16.89;100.00
70254;BME280;57649;42.968;1.608;2023-07-13T08:53:16;97823.88;;;17.21;99.12
70254;BME280;57649;42.968;1.608;2023-07-13T08:55:42;97820.78;;;17.24;99.77
70254;BME280;57649;42.968;1.608;2023-07-13T08:58:13;97822.09;;;17.41;100.00
70254;BME280;57649;42.968;1.608;2023-07-13T09:00:54;97822.72;;;17.37;100.00
70254;BME280;57649;42.968;1.608;2023-07-13T09:03:24;97820.66;;;17.45;100.00
70254;BME280;57649;42.968;1.608;2023-07-13T09:05:57;97814.47;;;17.58;100.00
70254;BME280;57649;42.968;1.608;2023-07-13T09:08:45;97813.28;;;17.74;100.00
70254;BME280;57649;42.968;1.608;2023-07-13T09:11:45;97812.03;;;17.83;98.93
70254;BME280;57649;42.968;1.608;2023-07-13T09:17:02;97812.56;;;18.14;97.63
70254;BME280;57649;42.968;1.608;2023-07-13T09:19:32;97813.00;;;18.17;97.19
70254;BME280;57649;42.968;1.608;2023-07-13T09:22:03;97809.44;;;18.23;96.34
70254;BME280;57649;42.968;1.608;2023-07-13T09:24:50;97805.66;;;18.11;93.90
70254;BME280;57649;42.968;1.608;2023-07-13T09:27:22;97810.50;;;18.56;92.53
70254;BME280;57649;42.968;1.608;2023-07-13T09:29:52;97802.56;;;18.67;89.30
70254;BME280;57649;42.968;1.608;2023-07-13T09:32:21;97811.09;;;18.64;89.97
70254;BME280;57649;42.968;1.608;2023-07-13T09:34:53;97809.63;;;18.75;90.53
70254;BME280;57649;42.968;1.608;2023-07-13T09:37:21;97809.22;;;18.98;88.88
70254;BME280;57649;42.968;1.608;2023-07-13T09:39:49;97808.78;;;19.08;88.05
70254;BME280;57649;42.968;1.608;2023-07-13T09:42:16;97808.34;;;19.04;87.53
70254;BME280;57649;42.968;1.608;2023-07-13T09:47:18;97813.38;;;19.01;86.76
70254;BME280;57649;42.968;1.608;2023-07-13T09:49:44;97807.94;;;19.01;87.24
70254;BME280;57649;42.968;1.608;2023-07-13T09:52:15;97809.50;;;19.42;85.55
70254;BME280;57649;42.968;1.608;2023-07-13T09:54:45;97801.38;;;19.35;84.82
70254;BME280;57649;42.968;1.608;2023-07-13T09:57:18;97800.56;;;19.28;84.88
70254;BME280;57649;42.968;1.608;2023-07-13T09:59:50;97813.63;;;18.99;84.99
70254;BME280;57649;42.968;1.608;2023-07-13T10:02:23;97801.78;;;19.46;86.57
70254;BME280;57649;42.968;1.608;2023-07-13T10:04:59;97805.31;;;19.39;85.04
70254;BME280;57649;42.968;1.608;2023-07-13T10:07:25;97809.47;;;19.49;84.64
70254;BME280;57649;42.968;1.608;2023-07-13T10:09:52;97798.59;;;19.49;85.17
70254;BME280;57649;42.968;1.608;2023-07-13T10:12:19;97804.41;;;19.59;82.23
70254;BME280;57649;42.968;1.608;2023-07-13T10:14:44;97808.84;;;19.47;84.05
70254;BME280;57649;42.968;1.608;2023-07-13T10:17:13;97800.19;;;19.76;82.24
70254;BME280;57649;42.968;1.608;2023-07-13T10:19:40;97806.66;;;19.23;82.55
70254;BME280;57649;42.968;1.608;2023-07-13T10:22:12;97812.25;;;19.35;82.81
70254;BME280;57649;42.968;1.608;2023-07-13T10:24:39;97805.41;;;19.19;85.23
70254;BME280;57649;42.968;1.608;2023-07-13T10:27:20;97801.38;;;19.42;86.15
70254;BME280;57649;42.968;1.608;2023-07-13T10:30:13;97808.81;;;19.60;85.82
70254;BME280;57649;42.968;1.608;2023-07-13T10:32:40;97796.47;;;19.64;86.13
70254;BME280;57649;42.968;1.608;2023-07-13T10:35:10;97805.25;;;20.05;85.68
70254;BME280;57649;42.968;1.608;2023-07-13T10:40:20;97796.56;;;20.21;83.63
70254;BME280;57649;42.968;1.608;2023-07-13T10:42:50;97789.13;;;20.10;80.69
70254;BME280;57649;42.968;1.608;2023-07-13T10:45:20;97796.81;;;20.45;79.52
70254;BME280;57649;42.968;1.608;2023-07-13T10:47:47;97804.00;;;20.57;78.06
70254;BME280;57649;42.968;1.608;2023-07-13T10:50:21;97813.03;;;20.83;79.50
70254;BME280;57649;42.968;1.608;2023-07-13T10:52:53;97815.16;;;20.49;78.57
70254;BME280;57649;42.968;1.608;2023-07-13T10:55:54;97799.47;;;20.76;74.79
70254;BME280;57649;42.968;1.608;2023-07-13T10:58:34;97807.25;;;20.73;72.65
70254;BME280;57649;42.968;1.608;2023-07-13T11:03:27;97804.63;;;21.47;70.14
70254;BME280;57649;42.968;1.608;2023-07-13T11:10:56;97805.28;;;21.61;71.92
70254;BME280;57649;42.968;1.608;2023-07-13T11:18:52;97781.63;;;22.34;69.27
70254;BME280;57649;42.968;1.608;2023-07-13T11:21:23;97786.44;;;21.59;72.34
70254;BME280;57649;42.968;1.608;2023-07-13T11:24:02;97781.09;;;22.25;70.61
70254;BME280;57649;42.968;1.608;2023-07-13T11:26:51;97781.63;;;22.03;69.69
70254;BME280;57649;42.968;1.608;2023-07-13T11:29:24;97767.38;;;22.32;69.05
70254;BME280;57649;42.968;1.608;2023-07-13T11:31:55;97762.66;;;22.39;69.79
70254;BME280;57649;42.968;1.608;2023-07-13T11:34:29;97759.63;;;23.35;64.84
70254;BME280;57649;42.968;1.608;2023-07-13T11:36:56;97768.22;;;23.03;65.41
70254;BME280;57649;42.968;1.608;2023-07-13T11:39:31;97751.59;;;23.16;66.76
70254;BME280;57649;42.968;1.608;2023-07-13T11:42:00;97749.03;;;22.86;69.51
70254;BME280;57649;42.968;1.608;2023-07-13T11:44:29;97755.56;;;22.49;71.28
70254;BME280;57649;42.968;1.608;2023-07-13T11:47:11;97750.06;;;22.38;71.46
70254;BME280;57649;42.968;1.608;2023-07-13T11:49:50;97752.09;;;22.42;71.01
70254;BME280;57649;42.968;1.608;2023-07-13T11:52:20;97747.72;;;22.53;72.31
70254;BME280;57649;42.968;1.608;2023-07-13T11:54:54;97743.41;;;22.93;69.28
70254;BME280;57649;42.968;1.608;2023-07-13T11:59:53;97744.66;;;22.73;70.68
70254;BME280;57649;42.968;1.608;2023-07-13T12:02:30;97724.97;;;22.47;71.94
70254;BME280;57649;42.968;1.608;2023-07-13T12:04:57;97725.75;;;22.60;70.88
70254;BME280;57649;42.968;1.608;2023-07-13T12:07:23;97727.63;;;22.95;70.29
70254;BME280;57649;42.968;1.608;2023-07-13T12:09:48;97733.47;;;22.51;72.03
70254;BME280;57649;42.968;1.608;2023-07-13T12:12:28;97718.03;;;23.04;70.75
70254;BME280;57649;42.968;1.608;2023-07-13T12:14:54;97723.50;;;23.04;70.13
70254;BME280;57649;42.968;1.608;2023-07-13T12:17:22;97718.34;;;23.60;68.49
70254;BME280;57649;42.968;1.608;2023-07-13T12:19:49;97715.88;;;23.06;68.30
70254;BME280;57649;42.968;1.608;2023-07-13T12:22:17;97717.66;;;23.00;69.65
70254;BME280;57649;42.968;1.608;2023-07-13T12:24:44;97719.13;;;23.43;68.52
70254;BME280;57649;42.968;1.608;2023-07-13T12:27:25;97709.69;;;23.51;68.58
70254;BME280;57649;42.968;1.608;2023-07-13T12:30:01;97712.09;;;23.76;66.44
70254;BME280;57649;42.968;1.608;2023-07-13T12:32:27;97702.78;;;24.40;63.48
70254;BME280;57649;42.968;1.608;2023-07-13T12:34:55;97700.06;;;24.40;64.14
70254;BME280;57649;42.968;1.608;2023-07-13T12:37:21;97707.25;;;23.67;65.84
70254;BME280;57649;42.968;1.608;2023-07-13T12:39:48;97712.47;;;23.97;65.12
70254;BME280;57649;42.968;1.608;2023-07-13T12:42:22;97709.38;;;23.64;66.05
70254;BME280;57649;42.968;1.608;2023-07-13T12:47:23;97698.31;;;24.00;65.00
70254;BME280;57649;42.968;1.608;2023-07-13T12:49:53;97704.03;;;24.15;63.83
70254;BME280;57649;42.968;1.608;2023-07-13T12:52:24;97700.81;;;24.18;63.74
70254;BME280;57649;42.968;1.608;2023-07-13T12:55:04;97701.03;;;23.71;64.60
70254;BME280;57649;42.968;1.608;2023-07-13T12:57:30;97693.19;;;23.46;66.09
70254;BME280;57649;42.968;1.608;2023-07-13T12:59:55;97693.31;;;23.11;67.16
70254;BME280;57649;42.968;1.608;2023-07-13T13:02:28;97702.25;;;22.94;67.29
70254;BME280;57649;42.968;1.608;2023-07-13T13:04:56;97698.94;;;22.80;67.87
70254;BME280;57649;42.968;1.608;2023-07-13T13:07:23;97699.63;;;22.99;67.23
70254;BME280;57649;42.968;1.608;2023-07-13T13:09:49;97698.09;;;23.15;67.49
70254;BME280;57649;42.968;1.608;2023-07-13T13:12:14;97698.41;;;23.19;66.93
70254;BME280;57649;42.968;1.608;2023-07-13T13:14:40;97698.13;;;22.68;68.95
70254;BME280;57649;42.968;1.608;2023-07-13T13:17:18;97704.25;;;22.87;68.26
70254;BME280;57649;42.968;1.608;2023-07-13T13:19:45;97706.88;;;23.05;69.04
70254;BME280;57649;42.968;1.608;2023-07-13T13:22:11;97702.84;;;23.08;69.64
70254;BME280;57649;42.968;1.608;2023-07-13T13:24:36;97705.59;;;22.84;69.30